createdAt,value
2022-09-10T00:01:29.577Z,86.20
2022-09-10T00:03:57.244Z,86.17
2022-09-10T00:06:27.941Z,86.26
2022-09-10T00:08:59.215Z,86.60
2022-09-10T00:11:31.219Z,86.47
2022-09-10T00:14:09.101Z,86.45
2022-09-10T00:16:35.965Z,86.35
2022-09-10T00:19:02.998Z,86.25
2022-09-10T00:21:30.207Z,86.12
2022-09-10T00:23:57.958Z,86.17
2022-09-10T00:26:28.979Z,86.31
2022-09-10T00:29:01.539Z,86.19
2022-09-10T00:31:30.868Z,86.33
2022-09-10T00:34:00.448Z,86.48
2022-09-10T00:36:36.137Z,86.78
2022-09-10T00:39:15.752Z,86.63
2022-09-10T00:41:46.806Z,86.88
2022-09-10T00:44:41.580Z,86.91
2022-09-10T00:47:21.887Z,86.61
2022-09-10T00:49:54.471Z,86.76
2022-09-10T00:52:21.458Z,86.53
2022-09-10T00:54:48.568Z,86.22
2022-09-10T00:57:21.044Z,86.33
2022-09-10T00:59:54.970Z,86.50
2022-09-10T01:02:21.974Z,86.68
2022-09-10T01:04:49.868Z,86.74
2022-09-10T01:07:16.808Z,86.90
2022-09-10T01:09:44.264Z,86.93
2022-09-10T01:13:16.295Z,86.64
2022-09-10T01:15:57.937Z,86.59
2022-09-10T01:19:03.198Z,86.59
2022-09-10T01:21:57.599Z,86.45
2022-09-10T01:24:39.168Z,86.62
2022-09-10T01:27:37.329Z,86.69
2022-09-10T01:30:07.663Z,86.49
2022-09-10T01:33:35.662Z,87.21
2022-09-10T01:36:12.834Z,86.39
2022-09-10T01:38:42.376Z,86.25
2022-09-10T01:41:10.347Z,86.07
2022-09-10T01:43:37.779Z,86.26
2022-09-10T01:46:28.504Z,86.11
2022-09-10T01:49:22.416Z,86.18
2022-09-10T01:52:28.755Z,86.12
2022-09-10T01:55:17.378Z,87.07
2022-09-10T01:58:03.526Z,85.90
2022-09-10T02:00:33.553Z,86.09
2022-09-10T02:03:23.714Z,86.19
2022-09-10T02:05:54.283Z,86.31
2022-09-10T02:08:31.282Z,86.03
2022-09-10T02:11:06.520Z,85.99
2022-09-10T02:13:34.810Z,86.58
2022-09-10T02:16:04.127Z,85.77
2022-09-10T02:18:35.644Z,86.04
2022-09-10T02:21:03.361Z,86.04
2022-09-10T02:23:44.750Z,85.95
2022-09-10T02:26:14.561Z,85.85
2022-09-10T02:28:45.644Z,86.16
2022-09-10T02:31:13.127Z,86.14
2022-09-10T02:33:39.960Z,86.21
2022-09-10T02:36:07.227Z,86.24
2022-09-10T02:38:34.276Z,86.35
2022-09-10T02:41:01.100Z,86.58
2022-09-10T02:43:29.373Z,86.21
2022-09-10T02:45:59.848Z,86.36
2022-09-10T02:48:28.451Z,86.07
2022-09-10T02:50:55.220Z,85.97
2022-09-10T02:53:22.133Z,86.12
2022-09-10T02:55:49.135Z,86.33
2022-09-10T02:58:17.079Z,86.19
2022-09-10T03:00:45.769Z,86.46
2022-09-10T03:03:12.710Z,86.44
2022-09-10T03:05:41.776Z,86.22
2022-09-10T03:08:09.776Z,86.38
2022-09-10T03:10:38.566Z,86.56
2022-09-10T03:13:05.304Z,86.40
2022-09-10T03:15:32.210Z,86.64
2022-09-10T03:17:58.960Z,86.58
2022-09-10T03:20:26.063Z,86.55
2022-09-10T03:22:52.822Z,86.44
2022-09-10T03:25:19.937Z,86.43
2022-09-10T03:27:47.078Z,86.22
2022-09-10T03:30:14.334Z,86.04
2022-09-10T03:32:41.991Z,85.59
2022-09-10T03:35:10.289Z,86.01
2022-09-10T03:37:37.268Z,86.03
2022-09-10T03:40:05.795Z,85.97
2022-09-10T03:42:33.096Z,85.70
2022-09-10T03:44:59.894Z,85.75
2022-09-10T03:47:26.956Z,86.02
2022-09-10T03:49:53.890Z,85.64
2022-09-10T03:52:22.884Z,86.23
2022-09-10T03:54:51.198Z,85.92
2022-09-10T03:57:18.126Z,86.20
2022-09-10T03:59:46.170Z,86.37
2022-09-10T04:02:13.387Z,86.38
2022-09-10T04:04:41.495Z,86.37
2022-09-10T04:07:10.900Z,86.60
2022-09-10T04:09:37.702Z,86.64
2022-09-10T04:12:04.702Z,86.77
2022-09-10T04:14:32.211Z,86.83
2022-09-10T04:16:59.097Z,86.78
2022-09-10T04:19:27.740Z,86.99
2022-09-10T04:21:54.823Z,86.98
2022-09-10T04:24:21.869Z,87.45
2022-09-10T04:26:48.680Z,87.53
2022-09-10T04:29:15.478Z,87.38
2022-09-10T04:31:42.466Z,87.74
2022-09-10T04:34:09.264Z,87.67
2022-09-10T04:36:36.292Z,87.94
2022-09-10T04:39:03.519Z,87.92
2022-09-10T04:41:30.450Z,87.70
2022-09-10T04:43:57.681Z,87.66
2022-09-10T04:46:25.088Z,87.75
2022-09-10T04:48:52.388Z,87.66
2022-09-10T04:51:19.305Z,87.86
2022-09-10T04:53:46.654Z,87.98
2022-09-10T04:56:14.063Z,88.12
2022-09-10T04:58:41.483Z,88.11
2022-09-10T05:01:08.819Z,88.05
2022-09-10T05:03:35.934Z,87.76
2022-09-10T05:06:03.590Z,88.10
2022-09-10T05:08:30.438Z,88.26
2022-09-10T05:10:57.955Z,88.24
2022-09-10T05:13:24.815Z,88.44
2022-09-10T05:15:51.562Z,88.17
2022-09-10T05:18:18.307Z,88.06
2022-09-10T05:20:45.695Z,87.81
2022-09-10T05:23:12.829Z,88.27
2022-09-10T05:25:39.643Z,88.56
2022-09-10T05:28:06.404Z,88.23
2022-09-10T05:30:33.384Z,88.40
2022-09-10T05:33:01.868Z,88.26
2022-09-10T05:35:29.427Z,88.29
2022-09-10T05:38:01.191Z,88.21
2022-09-10T05:40:29.222Z,88.69
2022-09-10T05:42:56.342Z,88.94
2022-09-10T05:45:23.663Z,88.76
2022-09-10T05:47:51.581Z,88.91
2022-09-10T05:50:19.010Z,88.73
2022-09-10T05:52:47.084Z,88.74
2022-09-10T05:55:14.446Z,88.54
2022-09-10T05:57:41.903Z,88.55
2022-09-10T06:00:09.821Z,88.49
2022-09-10T06:02:37.390Z,88.65
2022-09-10T06:05:05.028Z,88.61
2022-09-10T06:07:32.314Z,88.65
2022-09-10T06:10:00.277Z,89.00
2022-09-10T06:12:27.535Z,88.62
2022-09-10T06:14:54.803Z,88.73
2022-09-10T06:17:21.545Z,88.73
2022-09-10T06:19:48.392Z,88.60
2022-09-10T06:22:15.142Z,88.77
2022-09-10T06:24:42.390Z,88.86
2022-09-10T06:27:09.961Z,88.62
2022-09-10T06:29:36.919Z,88.83
2022-09-10T06:32:04.835Z,88.83
2022-09-10T06:34:31.742Z,88.50
2022-09-10T06:36:58.660Z,88.65
2022-09-10T06:39:25.471Z,88.73
2022-09-10T06:41:53.806Z,88.46
2022-09-10T06:44:21.468Z,88.79
2022-09-10T06:47:28.259Z,88.44
2022-09-10T06:49:36.683Z,88.39
2022-09-10T06:52:03.743Z,88.52
2022-09-10T06:54:30.826Z,88.48
2022-09-10T06:56:58.243Z,88.08
2022-09-10T06:59:25.289Z,88.21
2022-09-10T07:01:52.195Z,87.99
2022-09-10T07:04:19.193Z,88.42
2022-09-10T07:06:47.691Z,88.09
2022-09-10T07:09:15.210Z,88.10
2022-09-10T07:11:42.196Z,88.10
2022-09-10T07:14:14.027Z,88.42
2022-09-10T07:16:41.699Z,88.49
2022-09-10T07:19:09.875Z,88.44
2022-09-10T07:21:38.082Z,88.14
2022-09-10T07:24:06.270Z,88.00
2022-09-10T07:26:33.543Z,87.98
2022-09-10T07:29:00.522Z,88.00
2022-09-10T07:31:31.768Z,87.89
2022-09-10T07:33:59.100Z,87.68
2022-09-10T07:36:26.240Z,87.47
2022-09-10T07:38:57.634Z,87.60
2022-09-10T07:41:28.364Z,87.66
2022-09-10T07:43:55.716Z,87.31
2022-09-10T07:46:25.819Z,86.75
2022-09-10T07:48:58.796Z,86.51
2022-09-10T07:51:29.306Z,86.75
2022-09-10T07:53:59.390Z,86.72
2022-09-10T07:56:26.753Z,86.50
2022-09-10T07:58:57.150Z,86.56
2022-09-10T08:01:24.161Z,86.48
2022-09-10T08:03:51.188Z,86.48
2022-09-10T08:06:18.747Z,86.53
2022-09-10T08:08:45.625Z,86.14
2022-09-10T08:11:16.735Z,86.31
2022-09-10T08:13:46.558Z,86.18
2022-09-10T08:16:18.015Z,85.88
2022-09-10T08:18:47.786Z,86.14
2022-09-10T08:21:16.075Z,85.45
2022-09-10T08:23:45.876Z,85.36
2022-09-10T08:26:12.624Z,85.56
2022-09-10T08:28:40.226Z,85.33
2022-09-10T08:31:11.771Z,85.29
2022-09-10T08:33:39.914Z,85.46
2022-09-10T08:36:11.021Z,84.64
2022-09-10T08:38:40.336Z,84.85
2022-09-10T08:41:13.562Z,84.89
2022-09-10T08:43:51.829Z,84.73
2022-09-10T08:46:32.531Z,84.27
2022-09-10T08:49:13.942Z,84.48
2022-09-10T08:51:48.823Z,83.60
2022-09-10T08:54:22.614Z,83.51
2022-09-10T08:56:50.902Z,83.61
2022-09-10T08:59:26.810Z,83.73
2022-09-10T09:02:02.663Z,83.47
2022-09-10T09:05:03.322Z,83.02
2022-09-10T09:07:40.478Z,82.76
2022-09-10T09:10:25.840Z,82.31
2022-09-10T09:13:22.072Z,81.80
2022-09-10T09:16:44.806Z,81.28
2022-09-10T09:19:36.856Z,80.51
2022-09-10T09:22:19.287Z,80.31
2022-09-10T09:24:58.014Z,80.15
2022-09-10T09:27:30.679Z,79.66
2022-09-10T09:30:08.022Z,79.62
2022-09-10T09:32:41.227Z,80.02
2022-09-10T09:35:35.020Z,80.02
2022-09-10T09:38:07.749Z,80.46
2022-09-10T09:41:00.622Z,80.62
2022-09-10T09:43:54.551Z,80.38
2022-09-10T09:46:23.142Z,80.42
2022-09-10T09:48:55.562Z,79.61
2022-09-10T09:51:25.495Z,78.90
2022-09-10T09:54:25.858Z,77.88
2022-09-10T09:56:50.371Z,76.70
2022-09-10T09:59:35.568Z,74.07
2022-09-10T10:02:13.263Z,73.65
2022-09-10T10:04:54.419Z,72.43
2022-09-10T10:07:34.004Z,71.37
2022-09-10T10:10:04.002Z,71.98
2022-09-10T10:12:32.411Z,71.81
2022-09-10T10:15:01.262Z,71.15
2022-09-10T10:17:40.235Z,71.48
2022-09-10T10:20:10.457Z,71.03
2022-09-10T10:22:40.760Z,71.48
2022-09-10T10:25:42.392Z,71.57
2022-09-10T10:28:22.226Z,71.85
2022-09-10T10:30:59.512Z,71.99
2022-09-10T10:33:33.360Z,72.31
2022-09-10T10:36:23.987Z,72.09
2022-09-10T10:39:15.795Z,71.20
2022-09-10T10:42:14.091Z,70.32
2022-09-10T10:45:05.479Z,68.87
2022-09-10T10:47:51.571Z,67.51
2022-09-10T10:50:40.531Z,66.29
2022-09-10T10:53:26.923Z,66.19
2022-09-10T10:56:17.476Z,66.16
2022-09-10T10:58:57.428Z,65.65
2022-09-10T11:01:30.485Z,64.34
2022-09-10T11:04:22.912Z,65.04
2022-09-10T11:07:00.068Z,65.21
2022-09-10T11:09:34.348Z,65.60
2022-09-10T11:12:20.161Z,65.80
2022-09-10T11:14:58.747Z,64.54
2022-09-10T11:17:51.898Z,63.29
2022-09-10T11:20:30.479Z,62.55
2022-09-10T11:23:26.566Z,62.79
2022-09-10T11:26:15.264Z,62.44
2022-09-10T11:28:54.479Z,63.00
2022-09-10T11:31:34.091Z,62.44
2022-09-10T11:34:12.519Z,61.87
2022-09-10T11:36:53.719Z,62.45
2022-09-10T11:39:37.826Z,62.04
2022-09-10T11:42:28.021Z,61.58
2022-09-10T11:45:05.668Z,62.10
2022-09-10T11:47:44.438Z,62.44
2022-09-10T11:50:21.731Z,62.23
2022-09-10T11:52:49.263Z,61.96
2022-09-10T11:55:21.739Z,61.27
2022-09-10T11:58:36.851Z,61.64
2022-09-10T12:01:56.146Z,61.43
2022-09-10T12:04:43.671Z,60.53
2022-09-10T12:07:46.117Z,59.60
2022-09-10T12:10:28.250Z,60.33
2022-09-10T12:12:54.980Z,60.64
2022-09-10T12:15:31.267Z,60.44
2022-09-10T12:18:05.390Z,60.47
2022-09-10T12:20:57.314Z,61.08
2022-09-10T12:23:29.949Z,61.44
2022-09-10T12:26:05.668Z,61.64
2022-09-10T12:28:45.904Z,61.88
2022-09-10T12:31:16.241Z,61.44
2022-09-10T12:33:43.683Z,62.56
2022-09-10T12:36:15.687Z,61.37
2022-09-10T12:38:52.825Z,61.58
2022-09-10T12:41:25.819Z,61.29
2022-09-10T12:44:03.227Z,62.02
2022-09-10T12:46:31.675Z,61.79
2022-09-10T12:49:01.440Z,61.84
2022-09-10T12:51:51.805Z,62.20
2022-09-10T12:54:33.315Z,62.47
2022-09-10T12:57:31.637Z,61.67
2022-09-10T13:00:16.976Z,62.01
2022-09-10T13:02:43.744Z,61.86
2022-09-10T13:05:31.709Z,61.77
2022-09-10T13:08:12.442Z,62.10
2022-09-10T13:10:41.507Z,62.26
2022-09-10T13:13:24.679Z,62.59
2022-09-10T13:15:53.784Z,62.95
2022-09-10T13:18:29.145Z,63.05
2022-09-10T13:20:57.302Z,62.81
2022-09-10T13:23:47.421Z,63.26
2022-09-10T13:26:31.133Z,63.75
2022-09-10T13:28:59.865Z,63.25
2022-09-10T13:31:35.283Z,63.02
2022-09-10T13:34:18.172Z,62.50
2022-09-10T13:37:21.835Z,62.53
2022-09-10T13:39:48.806Z,62.61
2022-09-10T13:42:47.778Z,61.44
2022-09-10T13:45:50.873Z,61.32
2022-09-10T13:48:25.269Z,60.59
2022-09-10T13:51:12.564Z,61.25
2022-09-10T13:53:45.987Z,61.30
2022-09-10T13:56:21.779Z,60.89
2022-09-10T13:58:52.727Z,61.58
2022-09-10T14:01:19.570Z,61.24
2022-09-10T14:03:46.380Z,61.21
2022-09-10T14:06:22.909Z,61.03
2022-09-10T14:09:06.411Z,61.22
2022-09-10T14:11:41.959Z,61.59
2022-09-10T14:14:16.785Z,61.19
2022-09-10T14:16:50.791Z,61.00
2022-09-10T14:19:30.912Z,60.89
2022-09-10T14:21:58.287Z,60.69
2022-09-10T14:24:40.380Z,60.48
2022-09-10T14:27:24.463Z,60.72
2022-09-10T14:29:56.566Z,60.65
2022-09-10T14:32:26.412Z,60.68
2022-09-10T14:34:53.878Z,60.95
2022-09-10T14:37:38.260Z,59.98
2022-09-10T14:40:19.266Z,59.80
2022-09-10T14:42:49.175Z,59.99
2022-09-10T14:45:47.984Z,59.98
2022-09-10T14:48:35.734Z,59.85
2022-09-10T14:51:20.635Z,59.53
2022-09-10T14:53:52.364Z,59.98
2022-09-10T14:56:34.198Z,59.81
2022-09-10T14:59:05.884Z,59.35
2022-09-10T15:01:33.083Z,59.38
2022-09-10T15:04:00.019Z,59.62
2022-09-10T15:06:27.589Z,59.69
2022-09-10T15:08:58.162Z,59.79
2022-09-10T15:11:28.323Z,59.49
2022-09-10T15:13:56.259Z,59.25
2022-09-10T15:16:25.839Z,59.43
2022-09-10T15:18:52.621Z,59.23
2022-09-10T15:21:20.274Z,59.50
2022-09-10T15:23:48.347Z,59.45
2022-09-10T15:26:16.140Z,59.45
2022-09-10T15:28:42.932Z,59.46
2022-09-10T15:31:11.219Z,59.70
2022-09-10T15:33:38.133Z,59.96
2022-09-10T15:36:05.964Z,59.72
2022-09-10T15:38:32.780Z,60.41
2022-09-10T15:41:09.859Z,60.48
2022-09-10T15:43:41.451Z,60.55
2022-09-10T15:46:10.103Z,60.99
2022-09-10T15:48:37.359Z,61.18
2022-09-10T15:51:15.042Z,61.55
2022-09-10T15:53:43.566Z,61.29
2022-09-10T15:56:12.151Z,60.90
2022-09-10T15:58:39.753Z,60.90
2022-09-10T16:01:12.648Z,60.65
2022-09-10T16:03:47.455Z,60.65
2022-09-10T16:06:15.786Z,60.05
2022-09-10T16:08:42.761Z,59.97
2022-09-10T16:11:14.295Z,60.00
2022-09-10T16:13:41.371Z,60.09
2022-09-10T16:16:12.535Z,60.20
2022-09-10T16:18:39.313Z,60.24
2022-09-10T16:21:29.634Z,59.99
2022-09-10T16:23:59.143Z,60.17
2022-09-10T16:26:32.737Z,60.24
2022-09-10T16:29:04.099Z,60.17
2022-09-10T16:31:34.935Z,60.13
2022-09-10T16:34:05.414Z,60.06
2022-09-10T16:36:35.115Z,59.63
2022-09-10T16:39:05.201Z,59.37
2022-09-10T16:41:33.374Z,59.44
2022-09-10T16:44:00.813Z,59.48
2022-09-10T16:46:28.483Z,59.68
2022-09-10T16:48:56.855Z,59.20
2022-09-10T16:51:26.072Z,59.05
2022-09-10T16:54:02.603Z,59.09
2022-09-10T16:56:40.123Z,59.08
2022-09-10T16:59:10.455Z,59.10
2022-09-10T17:01:37.943Z,58.10
2022-09-10T17:04:07.310Z,58.37
2022-09-10T17:06:35.313Z,58.66
2022-09-10T17:09:02.934Z,58.79
2022-09-10T17:11:32.346Z,59.29
2022-09-10T17:14:03.375Z,59.69
2022-09-10T17:16:37.760Z,59.74
2022-09-10T17:19:13.190Z,60.13
2022-09-10T17:21:44.090Z,60.61
2022-09-10T17:24:13.239Z,60.80
2022-09-10T17:26:41.559Z,60.96
2022-09-10T17:29:17.415Z,60.87
2022-09-10T17:31:46.742Z,61.34
2022-09-10T17:34:19.996Z,61.43
2022-09-10T17:36:48.216Z,61.48
2022-09-10T17:39:16.250Z,61.79
2022-09-10T17:41:43.532Z,61.98
2022-09-10T17:44:11.817Z,62.17
2022-09-10T17:46:38.995Z,62.06
2022-09-10T17:49:06.421Z,62.43
2022-09-10T17:51:35.248Z,62.92
2022-09-10T17:54:03.450Z,63.17
2022-09-10T17:56:31.656Z,63.48
2022-09-10T17:59:01.812Z,63.82
2022-09-10T18:01:37.847Z,64.17
2022-09-10T18:04:06.548Z,64.41
2022-09-10T18:06:36.581Z,64.60
2022-09-10T18:09:05.103Z,64.87
2022-09-10T18:11:36.647Z,65.00
2022-09-10T18:14:04.363Z,65.32
2022-09-10T18:16:33.919Z,65.39
2022-09-10T18:19:04.504Z,65.87
2022-09-10T18:21:35.296Z,66.25
2022-09-10T18:24:14.143Z,66.38
2022-09-10T18:26:44.480Z,66.44
2022-09-10T18:29:25.055Z,66.65
2022-09-10T18:31:58.920Z,67.02
2022-09-10T18:34:31.219Z,67.54
2022-09-10T18:37:02.963Z,67.78
2022-09-10T18:39:33.246Z,67.88
2022-09-10T18:42:03.639Z,68.30
2022-09-10T18:44:37.249Z,68.43
2022-09-10T18:47:17.703Z,69.08
2022-09-10T18:49:50.737Z,69.24
2022-09-10T18:52:17.780Z,69.89
2022-09-10T18:54:46.609Z,70.10
2022-09-10T18:57:13.630Z,70.55
2022-09-10T18:59:40.527Z,71.01
2022-09-10T19:02:07.602Z,71.25
2022-09-10T19:04:45.013Z,71.11
2022-09-10T19:07:22.842Z,71.48
2022-09-10T19:09:49.650Z,72.18
2022-09-10T19:12:19.249Z,72.51
2022-09-10T19:14:46.307Z,72.56
2022-09-10T19:17:13.060Z,72.69
2022-09-10T19:19:39.865Z,72.97
2022-09-10T19:22:07.411Z,73.27
2022-09-10T19:24:54.041Z,73.04
2022-09-10T19:27:21.600Z,73.38
2022-09-10T19:29:49.954Z,73.50
2022-09-10T19:32:17.300Z,74.12
2022-09-10T19:34:44.546Z,74.21
2022-09-10T19:37:11.507Z,74.64
2022-09-10T19:39:38.331Z,74.68
2022-09-10T19:42:06.934Z,74.69
2022-09-10T19:44:34.163Z,75.02
2022-09-10T19:47:01.223Z,75.04
2022-09-10T19:49:28.089Z,75.49
2022-09-10T19:51:54.869Z,75.33
2022-09-10T19:54:22.892Z,75.63
2022-09-10T19:56:49.915Z,75.88
2022-09-10T19:59:17.370Z,75.67
2022-09-10T20:01:46.222Z,76.02
2022-09-10T20:04:14.262Z,76.02
2022-09-10T20:06:46.167Z,76.31
2022-09-10T20:09:13.489Z,76.05
2022-09-10T20:11:40.895Z,76.30
2022-09-10T20:14:13.511Z,76.08
2022-09-10T20:16:45.147Z,76.31
2022-09-10T20:19:18.582Z,76.66
2022-09-10T20:21:46.683Z,76.86
2022-09-10T20:24:14.387Z,76.96
2022-09-10T20:26:42.535Z,76.96
2022-09-10T20:29:18.215Z,76.86
2022-09-10T20:31:47.117Z,76.91
2022-09-10T20:34:17.577Z,77.06
2022-09-10T20:36:45.185Z,77.32
2022-09-10T20:39:15.974Z,77.58
2022-09-10T20:41:43.883Z,77.18
2022-09-10T20:44:14.824Z,77.58
2022-09-10T20:46:42.547Z,77.61
2022-09-10T20:49:12.763Z,77.35
2022-09-10T20:51:41.627Z,77.34
2022-09-10T20:54:13.151Z,77.44
2022-09-10T20:56:40.792Z,77.57
2022-09-10T20:59:07.718Z,77.48
2022-09-10T21:01:35.189Z,77.35
2022-09-10T21:04:03.146Z,77.37
2022-09-10T21:06:32.866Z,77.54
2022-09-10T21:09:00.719Z,77.78
2022-09-10T21:11:31.294Z,77.54
2022-09-10T21:14:02.083Z,77.65
2022-09-10T21:16:41.444Z,77.51
2022-09-10T21:19:15.451Z,77.83
2022-09-10T21:21:46.199Z,77.85
2022-09-10T21:24:19.304Z,77.84
2022-09-10T21:26:46.420Z,77.99
2022-09-10T21:29:17.057Z,78.23
2022-09-10T21:31:45.500Z,78.28
2022-09-10T21:34:13.652Z,78.38
2022-09-10T21:39:14.460Z,78.70
2022-09-10T21:41:47.848Z,78.45
2022-09-10T21:44:18.581Z,78.63
2022-09-10T21:46:47.372Z,78.90
2022-09-10T21:49:14.621Z,78.79
2022-09-10T21:51:42.113Z,78.77
2022-09-10T21:54:15.590Z,78.75
2022-09-10T21:56:42.416Z,79.08
2022-09-10T21:59:10.837Z,79.08
2022-09-10T22:01:39.398Z,79.28
2022-09-10T22:04:06.591Z,78.85
2022-09-10T22:06:34.497Z,78.94
2022-09-10T22:09:08.716Z,79.43
2022-09-10T22:11:41.393Z,79.32
2022-09-10T22:14:14.512Z,79.65
2022-09-10T22:16:41.546Z,79.46
2022-09-10T22:19:14.418Z,79.28
2022-09-10T22:21:41.366Z,79.54
2022-09-10T22:24:13.234Z,79.91
2022-09-10T22:26:43.411Z,79.97
2022-09-10T22:29:12.524Z,80.02
2022-09-10T22:31:39.408Z,80.09
2022-09-10T22:34:10.779Z,79.90
2022-09-10T22:36:40.715Z,79.78
2022-09-10T22:39:19.842Z,80.12
2022-09-10T22:41:48.277Z,80.59
2022-09-10T22:44:17.806Z,80.37
2022-09-10T22:46:45.068Z,80.45
2022-09-10T22:49:12.081Z,80.26
2022-09-10T22:51:41.180Z,80.49
2022-09-10T22:54:10.828Z,80.50
2022-09-10T22:56:38.206Z,80.47
2022-09-10T22:59:06.532Z,80.48
2022-09-10T23:01:38.324Z,80.71
2022-09-10T23:04:07.870Z,80.46
2022-09-10T23:06:37.725Z,80.91
2022-09-10T23:09:12.335Z,81.15
2022-09-10T23:11:41.927Z,81.12
2022-09-10T23:14:15.868Z,81.19
2022-09-10T23:16:48.020Z,81.22
2022-09-10T23:19:21.364Z,81.34
2022-09-10T23:21:51.338Z,81.27
2022-09-10T23:24:22.347Z,81.38
2022-09-10T23:26:49.454Z,81.69
2022-09-10T23:29:17.495Z,81.65
2022-09-10T23:31:46.494Z,81.86
2022-09-10T23:34:20.816Z,81.59
2022-09-10T23:36:49.527Z,81.63
2022-09-10T23:39:22.757Z,81.56
2022-09-10T23:41:52.734Z,81.69
2022-09-10T23:44:20.478Z,81.91
2022-09-10T23:46:48.203Z,81.89
2022-09-10T23:49:15.446Z,81.68
2022-09-10T23:51:42.602Z,81.72
2022-09-10T23:54:10.764Z,81.85
2022-09-10T23:56:37.985Z,81.89
2022-09-10T23:59:04.799Z,81.67
